Time;durP1;ratioP1;P1;durP2;ratioP2;P2;SDS_P1;SDS_P2;PMS_P1;PMS_P2;Temp;Humidity;BMP_temperature;BMP_pressure;BME280_temperature;BME280_humidity;BME280_pressure;Samples;Min_cycle;Max_cycle;Signal;HPM_P1;HPM_P2
2022/05/25 00:01:20;;;;;;;0.20;0.20;;;;;;;;;;5055210;28;20082;-69
2022/05/25 00:03:46;;;;;;;0.20;0.20;;;;;;;;;;5037974;28;20151;-69
2022/05/25 00:06:12;;;;;;;0.20;0.20;;;;;;;;;;5055826;28;20064;-69
2022/05/25 00:08:40;;;;;;;0.20;0.20;;;;;;;;;;5037313;28;20045;-71
2022/05/25 00:11:05;;;;;;;0.20;0.20;;;;;;;;;;5055015;28;20128;-71
2022/05/25 00:13:31;;;;;;;0.10;0.10;;;;;;;;;;5037473;28;20061;-70
2022/05/25 00:15:57;;;;;;;0.20;0.20;;;;;;;;;;5054751;28;20106;-70
2022/05/25 00:18:22;;;;;;;0.25;0.25;;;;;;;;;;5054794;28;20083;-70
2022/05/25 00:20:48;;;;;;;0.20;0.20;;;;;;;;;;5054813;28;20048;-70
2022/05/25 00:23:13;;;;;;;0.30;0.30;;;;;;;;;;5054974;28;20385;-70
2022/05/25 00:25:40;;;;;;;0.30;0.30;;;;;;;;;;5054515;28;20064;-70
2022/05/25 00:28:12;;;;;;;0.10;0.10;;;;;;;;;;5054503;28;20488;-70
2022/05/25 00:30:39;;;;;;;0.20;0.20;;;;;;;;;;5054831;28;20033;-70
2022/05/25 00:33:04;;;;;;;0.20;0.20;;;;;;;;;;5054558;28;20029;-69
2022/05/25 00:35:31;;;;;;;0.17;0.17;;;;;;;;;;5054637;28;20043;-70
2022/05/25 00:37:57;;;;;;;0.20;0.20;;;;;;;;;;5036669;28;20032;-70
2022/05/25 00:40:22;;;;;;;0.20;0.20;;;;;;;;;;5054304;28;20037;-70
2022/05/25 00:42:48;;;;;;;0.20;0.20;;;;;;;;;;5054721;28;20029;-69
2022/05/25 00:45:14;;;;;;;0.10;0.10;;;;;;;;;;5054350;28;20037;-70
2022/05/25 00:47:41;;;;;;;0.60;0.60;;;;;;;;;;5054470;28;20065;-70
2022/05/25 00:50:08;;;;;;;0.20;0.20;;;;;;;;;;5036705;28;20086;-70
2022/05/25 00:52:33;;;;;;;0.30;0.30;;;;;;;;;;5036261;28;20033;-70
2022/05/25 00:55:00;;;;;;;0.20;0.20;;;;;;;;;;5054096;28;20028;-70
2022/05/25 00:57:29;;;;;;;0.20;0.20;;;;;;;;;;5036724;28;20029;-70
2022/05/25 00:59:58;;;;;;;0.20;0.20;;;;;;;;;;5053308;28;20033;-70
2022/05/25 01:02:25;;;;;;;0.20;0.20;;;;;;;;;;5054183;28;20279;-70
2022/05/25 01:04:50;;;;;;;1.48;0.50;;;;;;;;;;5054183;28;20029;-70
2022/05/25 01:07:25;;;;;;;0.20;0.20;;;;;;;;;;5054039;28;20043;-69
2022/05/25 01:09:57;;;;;;;0.20;0.20;;;;;;;;;;5054034;28;20056;-69
2022/05/25 01:12:41;;;;;;;0.30;0.30;;;;;;;;;;5054195;28;20538;-69
2022/05/25 01:15:26;;;;;;;0.20;0.20;;;;;;;;;;5054065;28;20037;-69
2022/05/25 01:18:06;;;;;;;0.20;0.20;;;;;;;;;;5036054;28;20032;-70
2022/05/25 01:20:32;;;;;;;0.30;0.30;;;;;;;;;;5053871;28;20025;-70
2022/05/25 01:23:21;;;;;;;0.88;0.73;;;;;;;;;;5035976;28;20029;-70
2022/05/25 01:26:05;;;;;;;0.20;0.20;;;;;;;;;;5045710;28;20045;-69
2022/05/25 01:28:49;;;;;;;0.20;0.20;;;;;;;;;;5053513;28;20545;-69
2022/05/25 01:31:19;;;;;;;0.30;0.30;;;;;;;;;;5053911;28;20385;-70
2022/05/25 01:33:52;;;;;;;0.20;0.20;;;;;;;;;;5053723;28;20037;-70
2022/05/25 01:36:21;;;;;;;0.20;0.20;;;;;;;;;;5053726;28;20044;-70
2022/05/25 01:38:47;;;;;;;;;;;;;;;;;;5053974;28;20033;-71
2022/05/25 01:41:22;;;;;;;0.20;0.20;;;;;;;;;;5053492;28;20394;-70
2022/05/25 01:43:47;;;;;;;0.20;0.20;;;;;;;;;;5053540;28;20025;-70
2022/05/25 01:46:15;;;;;;;0.20;0.20;;;;;;;;;;5035774;28;20037;-70
2022/05/25 01:48:42;;;;;;;0.20;0.20;;;;;;;;;;5035501;28;20028;-71
2022/05/25 01:51:12;;;;;;;0.20;0.20;;;;;;;;;;5035787;28;20064;-71
2022/05/25 01:53:40;;;;;;;0.20;0.20;;;;;;;;;;5053203;28;20394;-71
2022/05/25 01:56:08;;;;;;;0.20;0.20;;;;;;;;;;5053295;28;20064;-71
2022/05/25 01:58:36;;;;;;;0.20;0.20;;;;;;;;;;5053319;28;20499;-70
2022/05/25 02:01:05;;;;;;;0.20;0.20;;;;;;;;;;5053681;28;20029;-70
2022/05/25 02:06:34;;;;;;;0.20;0.20;;;;;;;;;;5052929;28;20124;-70
2022/05/25 02:09:19;;;;;;;0.20;0.20;;;;;;;;;;5053196;28;20036;-70
2022/05/25 02:11:46;;;;;;;0.20;0.20;;;;;;;;;;5052884;28;20033;-70
2022/05/25 02:14:26;;;;;;;0.20;0.20;;;;;;;;;;5053104;28;20063;-70
2022/05/25 02:17:01;;;;;;;0.20;0.20;;;;;;;;;;5053049;28;20033;-69
2022/05/25 02:19:35;;;;;;;0.20;0.20;;;;;;;;;;5052908;28;20075;-70
2022/05/25 02:22:06;;;;;;;0.20;0.20;;;;;;;;;;5052707;28;20044;-70
2022/05/25 02:24:35;;;;;;;0.20;0.20;;;;;;;;;;5052991;28;20527;-71
2022/05/25 02:27:05;;;;;;;0.20;0.20;;;;;;;;;;5034831;28;20040;-69
2022/05/25 02:29:42;;;;;;;0.30;0.30;;;;;;;;;;5035005;28;20041;-69
2022/05/25 02:32:16;;;;;;;0.20;0.20;;;;;;;;;;5052781;28;20033;-69
2022/05/25 02:34:44;;;;;;;0.20;0.20;;;;;;;;;;5052953;28;20178;-70
2022/05/25 02:37:10;;;;;;;0.20;0.20;;;;;;;;;;5051383;28;20033;-69
2022/05/25 02:39:36;;;;;;;0.20;0.20;;;;;;;;;;5052550;28;20453;-70
2022/05/25 02:42:02;;;;;;;0.25;0.25;;;;;;;;;;5052054;28;20025;-70
2022/05/25 02:44:27;;;;;;;0.20;0.20;;;;;;;;;;5052745;28;20033;-69
2022/05/25 02:46:53;;;;;;;0.40;0.40;;;;;;;;;;5052710;28;20068;-69
2022/05/25 02:49:18;;;;;;;0.20;0.20;;;;;;;;;;5052684;28;20028;-69
2022/05/25 02:51:45;;;;;;;0.30;0.30;;;;;;;;;;5052687;28;20021;-69
2022/05/25 02:54:10;;;;;;;0.20;0.20;;;;;;;;;;5052291;28;20120;-70
2022/05/25 02:56:36;;;;;;;0.25;0.25;;;;;;;;;;5052562;28;20116;-70
2022/05/25 02:59:02;;;;;;;0.20;0.20;;;;;;;;;;5052813;28;20041;-71
2022/05/25 03:01:28;;;;;;;0.20;0.20;;;;;;;;;;5052441;28;20029;-71
2022/05/25 03:03:54;;;;;;;0.20;0.20;;;;;;;;;;5046678;28;20045;-71
2022/05/25 03:06:20;;;;;;;0.20;0.20;;;;;;;;;;5048481;28;20033;-71
2022/05/25 03:08:45;;;;;;;0.20;0.20;;;;;;;;;;5048909;28;20107;-70
2022/05/25 03:11:11;;;;;;;0.20;0.20;;;;;;;;;;5048544;28;20033;-70
2022/05/25 03:13:36;;;;;;;0.20;0.20;;;;;;;;;;5048366;28;20037;-70
2022/05/25 03:16:03;;;;;;;0.13;0.13;;;;;;;;;;5048441;28;20028;-71
2022/05/25 03:18:28;;;;;;;0.35;0.35;;;;;;;;;;5030235;28;20280;-70
2022/05/25 03:20:54;;;;;;;0.17;0.17;;;;;;;;;;5048115;28;20412;-71
2022/05/25 03:23:19;;;;;;;0.28;0.28;;;;;;;;;;5031171;28;20035;-70
2022/05/25 03:25:45;;;;;;;0.30;0.30;;;;;;;;;;5052014;28;20037;-70
2022/05/25 03:28:11;;;;;;;5.03;0.82;;;;;;;;;;5051473;28;20043;-69
2022/05/25 03:30:36;;;;;;;0.52;0.52;;;;;;;;;;5051707;28;20111;-70
2022/05/25 03:33:02;;;;;;;0.17;0.17;;;;;;;;;;5051790;28;20041;-69
2022/05/25 03:35:28;;;;;;;0.20;0.20;;;;;;;;;;5051518;28;20116;-69
2022/05/25 03:37:53;;;;;;;0.10;0.10;;;;;;;;;;5033784;28;20037;-71
2022/05/25 03:40:19;;;;;;;0.15;0.15;;;;;;;;;;5051033;28;20048;-71
2022/05/25 03:42:45;;;;;;;0.20;0.20;;;;;;;;;;5033434;28;20075;-71
2022/05/25 03:45:11;;;;;;;0.20;0.20;;;;;;;;;;5033410;28;20091;-70
2022/05/25 03:47:37;;;;;;;0.10;0.10;;;;;;;;;;5051181;28;20041;-70
2022/05/25 03:50:03;;;;;;;0.20;0.20;;;;;;;;;;5051507;28;20048;-70
2022/05/25 03:52:28;;;;;;;0.10;0.10;;;;;;;;;;5029391;28;20034;-71
2022/05/25 03:54:54;;;;;;;0.20;0.20;;;;;;;;;;5031681;28;20033;-71
2022/05/25 03:57:19;;;;;;;0.30;0.30;;;;;;;;;;5031471;28;20029;-69
2022/05/25 03:59:45;;;;;;;0.20;0.20;;;;;;;;;;5013962;28;20064;-70
2022/05/25 04:02:11;;;;;;;0.20;0.20;;;;;;;;;;5047994;28;20041;-71
2022/05/25 04:04:37;;;;;;;0.20;0.20;;;;;;;;;;5051479;28;20120;-70
2022/05/25 04:07:02;;;;;;;0.20;0.20;;;;;;;;;;5050980;28;20579;-70
2022/05/25 04:09:28;;;;;;;0.20;0.20;;;;;;;;;;5032838;28;20045;-70
2022/05/25 04:11:53;;;;;;;0.20;0.20;;;;;;;;;;5051317;28;20400;-70
2022/05/25 04:14:19;;;;;;;0.20;0.20;;;;;;;;;;5050548;28;20116;-70
2022/05/25 04:16:45;;;;;;;0.20;0.20;;;;;;;;;;5048696;28;20059;-70
2022/05/25 04:19:11;;;;;;;0.20;0.20;;;;;;;;;;5050885;28;20041;-70
2022/05/25 04:21:36;;;;;;;0.85;0.85;;;;;;;;;;5033314;28;20461;-69
2022/05/25 04:24:02;;;;;;;0.20;0.20;;;;;;;;;;5033552;28;20063;-70
2022/05/25 04:26:31;;;;;;;0.20;0.20;;;;;;;;;;5060237;28;20036;-70
2022/05/25 04:28:57;;;;;;;0.20;0.20;;;;;;;;;;5051168;28;20037;-70
2022/05/25 04:31:22;;;;;;;0.28;0.28;;;;;;;;;;5051197;28;20052;-70
2022/05/25 04:33:48;;;;;;;0.20;0.20;;;;;;;;;;5055380;28;20029;-70
2022/05/25 04:36:14;;;;;;;0.20;0.20;;;;;;;;;;5061188;28;20563;-70
2022/05/25 04:38:40;;;;;;;0.20;0.20;;;;;;;;;;5070476;28;20044;-71
2022/05/25 04:41:05;;;;;;;0.22;0.22;;;;;;;;;;5070700;28;20064;-71
2022/05/25 04:43:31;;;;;;;0.20;0.20;;;;;;;;;;5033234;28;20503;-70
2022/05/25 04:45:59;;;;;;;0.28;0.28;;;;;;;;;;5071315;28;20028;-70
2022/05/25 04:48:25;;;;;;;0.20;0.20;;;;;;;;;;5071234;28;20158;-70
2022/05/25 04:50:51;;;;;;;0.20;0.20;;;;;;;;;;5054541;28;20052;-70
2022/05/25 04:53:18;;;;;;;0.20;0.20;;;;;;;;;;5049793;28;20036;-70
2022/05/25 04:58:28;;;;;;;0.20;0.20;;;;;;;;;;5050612;28;20044;-70
2022/05/25 05:00:54;;;;;;;0.30;0.30;;;;;;;;;;5049000;28;20156;-69
2022/05/25 05:03:20;;;;;;;0.20;0.20;;;;;;;;;;5050605;28;20035;-70
2022/05/25 05:05:46;;;;;;;0.20;0.20;;;;;;;;;;5050370;28;20040;-70
2022/05/25 05:08:12;;;;;;;0.20;0.20;;;;;;;;;;5050002;28;20048;-70
2022/05/25 05:10:37;;;;;;;0.20;0.20;;;;;;;;;;5050317;28;20370;-69
2022/05/25 05:13:04;;;;;;;0.20;0.20;;;;;;;;;;5031577;28;20087;-70
2022/05/25 05:15:50;;;;;;;0.30;0.30;;;;;;;;;;5049258;28;20037;-70
2022/05/25 05:18:15;;;;;;;0.30;0.30;;;;;;;;;;5049910;28;20029;-70
2022/05/25 05:21:00;;;;;;;1.77;1.73;;;;;;;;;;5050365;28;20404;-69
2022/05/25 05:23:25;;;;;;;0.20;0.20;;;;;;;;;;5054638;28;20028;-69
2022/05/25 05:25:51;;;;;;;0.20;0.20;;;;;;;;;;5031932;28;20468;-69
2022/05/25 05:28:19;;;;;;;1.48;1.00;;;;;;;;;;5049665;28;20029;-69
2022/05/25 05:30:49;;;;;;;1.03;1.03;;;;;;;;;;5043713;28;20036;-69
2022/05/25 05:33:15;;;;;;;0.20;0.20;;;;;;;;;;5034352;28;20462;-69
2022/05/25 05:35:41;;;;;;;0.20;0.20;;;;;;;;;;4995781;28;20120;-70
2022/05/25 05:38:07;;;;;;;0.35;0.35;;;;;;;;;;5029412;28;20565;-71
2022/05/25 05:40:33;;;;;;;0.20;0.20;;;;;;;;;;5028753;28;20042;-71
2022/05/25 05:43:00;;;;;;;33.42;2.22;;;;;;;;;;5030059;28;20048;-70
2022/05/25 05:45:28;;;;;;;5.88;3.53;;;;;;;;;;5029309;28;20121;-70
2022/05/25 05:47:57;;;;;;;0.30;0.30;;;;;;;;;;5029469;28;20561;-70
2022/05/25 05:50:23;;;;;;;0.22;0.22;;;;;;;;;;5035443;28;20494;-70
2022/05/25 05:52:49;;;;;;;0.35;0.35;;;;;;;;;;5041370;28;20443;-70
2022/05/25 05:55:15;;;;;;;0.20;0.20;;;;;;;;;;5012267;28;20109;-71
2022/05/25 05:57:56;;;;;;;0.28;0.28;;;;;;;;;;5031200;28;20124;-71
2022/05/25 06:00:22;;;;;;;1.05;1.05;;;;;;;;;;5047099;28;20033;-71
2022/05/25 06:02:50;;;;;;;1.05;1.02;;;;;;;;;;5046252;28;20075;-71
2022/05/25 06:05:16;;;;;;;0.50;0.40;;;;;;;;;;5044890;28;20036;-68
2022/05/25 06:07:42;;;;;;;5.18;2.75;;;;;;;;;;5019747;28;20041;-71
2022/05/25 06:10:07;;;;;;;9.32;2.25;;;;;;;;;;5028938;28;20041;-70
2022/05/25 06:12:33;;;;;;;0.20;0.20;;;;;;;;;;5011579;28;20033;-70
2022/05/25 06:14:59;;;;;;;0.60;0.60;;;;;;;;;;5028639;28;20103;-72
2022/05/25 06:20:09;;;;;;;0.22;0.22;;;;;;;;;;5048192;28;20696;-70
2022/05/25 06:22:35;;;;;;;1.00;1.00;;;;;;;;;;5047612;28;20033;-71
2022/05/25 06:25:02;;;;;;;0.20;0.20;;;;;;;;;;5048714;28;20037;-71
2022/05/25 06:27:28;;;;;;;0.28;0.28;;;;;;;;;;5030091;28;20036;-70
2022/05/25 06:29:53;;;;;;;0.25;0.25;;;;;;;;;;5048437;28;20059;-70
2022/05/25 06:32:22;;;;;;;1.05;1.00;;;;;;;;;;5050828;28;20036;-71
2022/05/25 06:34:48;;;;;;;0.30;0.30;;;;;;;;;;5045275;28;20036;-70
2022/05/25 06:37:18;;;;;;;0.32;0.32;;;;;;;;;;5028817;28;20039;-70
2022/05/25 06:39:43;;;;;;;0.88;0.85;;;;;;;;;;5027673;28;20045;-71
2022/05/25 06:42:09;;;;;;;3.90;0.88;;;;;;;;;;5037769;28;20047;-69
2022/05/25 06:44:35;;;;;;;0.20;0.20;;;;;;;;;;5046688;28;20033;-70
2022/05/25 06:47:01;;;;;;;0.20;0.20;;;;;;;;;;5051450;28;20049;-70
2022/05/25 06:49:27;;;;;;;0.20;0.20;;;;;;;;;;5047347;28;20036;-70
2022/05/25 06:51:53;;;;;;;0.10;0.10;;;;;;;;;;5045677;28;20033;-70
2022/05/25 06:54:19;;;;;;;0.65;0.65;;;;;;;;;;5044701;28;20488;-70
2022/05/25 06:56:44;;;;;;;0.40;0.40;;;;;;;;;;5045634;28;20040;-71
2022/05/25 06:59:10;;;;;;;0.30;0.30;;;;;;;;;;5040920;28;20468;-73
2022/05/25 07:01:36;;;;;;;0.30;0.30;;;;;;;;;;5024958;28;20044;-75
2022/05/25 07:04:02;;;;;;;3.33;2.13;;;;;;;;;;5023384;28;20048;-75
2022/05/25 07:06:28;;;;;;;1.05;0.80;;;;;;;;;;5029540;28;20025;-74
2022/05/25 07:08:53;;;;;;;2.65;0.95;;;;;;;;;;5047210;28;20048;-75
2022/05/25 07:11:19;;;;;;;4.05;1.08;;;;;;;;;;5029533;28;20048;-74
2022/05/25 07:13:45;;;;;;;0.38;0.38;;;;;;;;;;5048148;28;20178;-74
2022/05/25 07:16:13;;;;;;;1.48;1.10;;;;;;;;;;5047394;28;20039;-74
2022/05/25 07:18:39;;;;;;;0.82;0.60;;;;;;;;;;5047351;28;20474;-74
2022/05/25 07:21:06;;;;;;;0.20;0.20;;;;;;;;;;5047353;28;20057;-75
2022/05/25 07:23:32;;;;;;;1.63;1.05;;;;;;;;;;5047528;28;20069;-73
2022/05/25 07:25:58;;;;;;;0.30;0.30;;;;;;;;;;5028942;28;20618;-74
2022/05/25 07:28:23;;;;;;;0.40;0.40;;;;;;;;;;5047358;28;20048;-73
2022/05/25 07:30:50;;;;;;;3.45;0.47;;;;;;;;;;5047796;28;20068;-73
2022/05/25 07:33:16;;;;;;;0.30;0.30;;;;;;;;;;5047982;28;20503;-70
2022/05/25 07:35:42;;;;;;;1.70;0.88;;;;;;;;;;5047886;28;20100;-70
2022/05/25 07:38:07;;;;;;;0.40;0.40;;;;;;;;;;5028016;28;20029;-71
2022/05/25 07:40:35;;;;;;;0.60;0.57;;;;;;;;;;5041175;28;20033;-70
2022/05/25 07:43:03;;;;;;;4.68;1.23;;;;;;;;;;5047624;28;20407;-70
2022/05/25 07:45:28;;;;;;;2.75;0.98;;;;;;;;;;5047308;28;20060;-70
2022/05/25 07:47:54;;;;;;;0.52;0.52;;;;;;;;;;5044934;28;20617;-70
2022/05/25 07:50:20;;;;;;;0.75;0.60;;;;;;;;;;5043629;28;20119;-70
2022/05/25 07:52:46;;;;;;;1.75;0.75;;;;;;;;;;5045564;28;20025;-71
2022/05/25 07:55:11;;;;;;;1.77;0.77;;;;;;;;;;5045710;28;20029;-71
2022/05/25 07:57:37;;;;;;;2.42;1.02;;;;;;;;;;5045083;28;20068;-70
2022/05/25 08:00:03;;;;;;;1.65;0.75;;;;;;;;;;5026769;28;20029;-71
2022/05/25 08:05:43;;;;;;;1.25;0.73;;;;;;;;;;5043660;28;20033;-73
2022/05/25 08:08:14;;;;;;;2.95;1.17;;;;;;;;;;5024637;28;20049;-73
2022/05/25 08:10:40;;;;;;;0.57;0.50;;;;;;;;;;5047816;28;20044;-74
2022/05/25 08:13:06;;;;;;;4.18;1.52;;;;;;;;;;5030687;28;20155;-73
2022/05/25 08:15:33;;;;;;;14.65;0.90;;;;;;;;;;5049608;28;20079;-74
2022/05/25 08:17:59;;;;;;;2.40;0.82;;;;;;;;;;5049921;28;20047;-75
2022/05/25 08:20:25;;;;;;;3.42;0.95;;;;;;;;;;5050247;28;20052;-74
2022/05/25 08:22:51;;;;;;;2.10;1.40;;;;;;;;;;5050467;28;20056;-74
2022/05/25 08:25:17;;;;;;;2.00;0.80;;;;;;;;;;5049683;28;20033;-74
2022/05/25 08:27:43;;;;;;;11.27;2.15;;;;;;;;;;5049417;28;20033;-75
2022/05/25 08:30:14;;;;;;;4.70;1.10;;;;;;;;;;5049691;28;20037;-75
2022/05/25 08:32:39;;;;;;;1.83;1.73;;;;;;;;;;5050640;28;20068;-73
2022/05/25 08:35:05;;;;;;;6.47;1.33;;;;;;;;;;5050043;28;20439;-72
2022/05/25 08:37:30;;;;;;;1.15;0.85;;;;;;;;;;5050540;28;20041;-72
2022/05/25 08:39:56;;;;;;;3.50;1.20;;;;;;;;;;5049803;28;20100;-78
2022/05/25 08:42:24;;;;;;;4.72;2.28;;;;;;;;;;5050173;28;20223;-72
2022/05/25 08:44:50;;;;;;;2.95;1.02;;;;;;;;;;5050146;28;20484;-73
2022/05/25 08:47:17;;;;;;;17.33;1.20;;;;;;;;;;5032086;28;20037;-72
2022/05/25 08:49:45;;;;;;;0.30;0.30;;;;;;;;;;5049597;28;20037;-73
2022/05/25 08:52:18;;;;;;;0.52;0.50;;;;;;;;;;5049824;28;20162;-72
2022/05/25 08:54:43;;;;;;;1.67;1.10;;;;;;;;;;5049925;28;20091;-74
2022/05/25 08:57:14;;;;;;;3.10;1.38;;;;;;;;;;5049787;28;20040;-72
2022/05/25 08:59:44;;;;;;;2.45;0.80;;;;;;;;;;5048275;28;20098;-72
2022/05/25 09:02:29;;;;;;;7.38;1.90;;;;;;;;;;5049665;28;20044;-68
2022/05/25 09:05:11;;;;;;;3.58;1.23;;;;;;;;;;5050045;28;20110;-68
2022/05/25 09:07:52;;;;;;;5.35;1.17;;;;;;;;;;5031698;28;20040;-68
2022/05/25 09:10:18;;;;;;;3.75;1.38;;;;;;;;;;5048312;28;20069;-69
2022/05/25 09:12:45;;;;;;;5.82;2.15;;;;;;;;;;5038477;28;20036;-69
2022/05/25 09:15:13;;;;;;;1.55;0.73;;;;;;;;;;5038182;28;20057;-69
2022/05/25 09:17:44;;;;;;;2.72;1.33;;;;;;;;;;5037995;28;20843;-69
2022/05/25 09:20:13;;;;;;;4.47;0.98;;;;;;;;;;5037034;28;20119;-69
2022/05/25 09:22:41;;;;;;;6.18;1.30;;;;;;;;;;5049395;28;20048;-68
2022/05/25 09:25:07;;;;;;;1.13;0.82;;;;;;;;;;5049397;28;20033;-69
2022/05/25 09:27:47;;;;;;;0.60;0.60;;;;;;;;;;5049300;28;20120;-68
2022/05/25 09:30:13;;;;;;;2.20;1.35;;;;;;;;;;5049041;28;20163;-68
2022/05/25 09:32:57;;;;;;;2.38;0.90;;;;;;;;;;5049418;28;20530;-68
2022/05/25 09:35:28;;;;;;;7.03;1.20;;;;;;;;;;5031650;28;20530;-70
2022/05/25 09:37:54;;;;;;;4.03;1.67;;;;;;;;;;5048755;28;20109;-69
2022/05/25 09:40:19;;;;;;;2.95;0.95;;;;;;;;;;5066122;28;20472;-72
2022/05/25 09:42:49;;;;;;;1.17;0.90;;;;;;;;;;5069464;28;20442;-71
2022/05/25 09:45:14;;;;;;;0.60;0.60;;;;;;;;;;5069207;28;20029;-71
2022/05/25 09:47:41;;;;;;;3.90;1.55;;;;;;;;;;5069317;28;20051;-71
2022/05/25 09:50:13;;;;;;;2.65;0.77;;;;;;;;;;5068305;28;20037;-74
2022/05/25 09:52:42;;;;;;;4.43;1.20;;;;;;;;;;5051626;28;20455;-73
2022/05/25 09:55:14;;;;;;;0.57;0.50;;;;;;;;;;5051454;28;20038;-72
2022/05/25 09:57:52;;;;;;;1.40;0.80;;;;;;;;;;5069216;28;20037;-72
2022/05/25 10:00:23;;;;;;;4.33;1.37;;;;;;;;;;5068419;28;20050;-71
2022/05/25 10:02:58;;;;;;;0.68;0.47;;;;;;;;;;5034293;28;20128;-72
2022/05/25 10:05:28;;;;;;;2.08;1.02;;;;;;;;;;5066710;28;20112;-73
2022/05/25 10:07:55;;;;;;;0.60;0.60;;;;;;;;;;5038825;28;20127;-73
2022/05/25 10:10:26;;;;;;;2.03;1.20;;;;;;;;;;5049501;28;20077;-72
2022/05/25 10:12:58;;;;;;;1.15;0.70;;;;;;;;;;5049341;28;20033;-73
2022/05/25 10:15:36;;;;;;;14.35;0.82;;;;;;;;;;5031332;28;20396;-72
2022/05/25 10:18:02;;;;;;;1.03;0.70;;;;;;;;;;5053103;28;20094;-72
2022/05/25 10:20:39;;;;;;;1.30;0.90;;;;;;;;;;5059055;28;20657;-71
2022/05/25 10:23:08;;;;;;;0.63;0.63;;;;;;;;;;5048429;28;20090;-75
2022/05/25 10:25:45;;;;;;;2.03;1.13;;;;;;;;;;5029709;28;20041;-72
2022/05/25 10:28:24;;;;;;;0.68;0.68;;;;;;;;;;5048611;28;20430;-73
2022/05/25 10:39:24;;;;;;;0.60;0.60;;;;;;;;;;5004308;28;20056;-73
2022/05/25 10:41:58;;;;;;;4.20;1.30;;;;;;;;;;5048954;28;20040;-72
2022/05/25 10:44:24;;;;;;;1.48;0.90;;;;;;;;;;5048376;28;20047;-72
2022/05/25 10:46:54;;;;;;;0.55;0.55;;;;;;;;;;5030795;28;20033;-72
2022/05/25 10:49:20;;;;;;;0.30;0.30;;;;;;;;;;5048155;28;20033;-72
2022/05/25 10:51:48;;;;;;;0.43;0.43;;;;;;;;;;5052135;28;20055;-73
2022/05/25 10:57:17;;;;;;;0.40;0.40;;;;;;;;;;5062792;28;20501;-73
2022/05/25 10:59:45;;;;;;;0.25;0.25;;;;;;;;;;5050291;28;20029;-72
2022/05/25 11:02:30;;;;;;;1.65;0.52;;;;;;;;;;5067414;28;20186;-71
2022/05/25 11:04:58;;;;;;;0.30;0.30;;;;;;;;;;5047182;28;20048;-72
2022/05/25 11:07:23;;;;;;;2.60;0.50;;;;;;;;;;5041293;28;20044;-72
2022/05/25 11:10:12;;;;;;;2.42;1.10;;;;;;;;;;5047812;28;20037;-72
2022/05/25 11:12:57;;;;;;;1.75;0.85;;;;;;;;;;5035075;28;20125;-72
2022/05/25 11:15:42;;;;;;;6.10;0.70;;;;;;;;;;5045658;28;20086;-71
2022/05/25 11:18:24;;;;;;;0.30;0.30;;;;;;;;;;5035268;28;20045;-71
2022/05/25 11:20:49;;;;;;;4.50;0.73;;;;;;;;;;5046708;28;20044;-72
2022/05/25 11:23:18;;;;;;;3.83;1.30;;;;;;;;;;5028139;28;20120;-74
2022/05/25 11:25:49;;;;;;;0.30;0.30;;;;;;;;;;5037973;28;20028;-73
2022/05/25 11:28:20;;;;;;;0.57;0.50;;;;;;;;;;5027850;28;20496;-73
2022/05/25 11:30:58;;;;;;;0.50;0.50;;;;;;;;;;5038515;28;20040;-71
2022/05/25 11:33:29;;;;;;;0.45;0.45;;;;;;;;;;5029935;28;20084;-73
2022/05/25 11:36:04;;;;;;;0.75;0.60;;;;;;;;;;5047822;28;20461;-73
2022/05/25 11:38:48;;;;;;;0.40;0.40;;;;;;;;;;5047879;28;20032;-72
2022/05/25 11:41:36;;;;;;;0.30;0.30;;;;;;;;;;5045659;28;20033;-73
2022/05/25 11:44:05;;;;;;;3.58;1.27;;;;;;;;;;5047858;28;20515;-73
2022/05/25 11:46:34;;;;;;;0.30;0.30;;;;;;;;;;5051058;28;20040;-72
2022/05/25 11:49:13;;;;;;;0.45;0.45;;;;;;;;;;5050509;28;20410;-73
2022/05/25 11:51:57;;;;;;;0.65;0.65;;;;;;;;;;5050673;28;20488;-72
2022/05/25 11:54:49;;;;;;;0.30;0.30;;;;;;;;;;5051514;28;20481;-74
2022/05/25 11:57:19;;;;;;;2.05;1.15;;;;;;;;;;5050628;28;20033;-72
2022/05/25 11:59:47;;;;;;;0.95;0.88;;;;;;;;;;5050285;28;20044;-73
2022/05/25 12:02:31;;;;;;;1.85;1.35;;;;;;;;;;5015717;28;20037;-73
2022/05/25 12:05:08;;;;;;;1.35;0.75;;;;;;;;;;5045362;28;20044;-73
2022/05/25 12:07:52;;;;;;;4.13;1.90;;;;;;;;;;5049876;28;20072;-73
2022/05/25 12:10:18;;;;;;;2.47;1.17;;;;;;;;;;5050384;28;20510;-73
2022/05/25 12:12:50;;;;;;;3.83;1.00;;;;;;;;;;5050755;28;20032;-76
2022/05/25 12:15:22;;;;;;;2.80;1.17;;;;;;;;;;5033712;28;20091;-78
2022/05/25 12:17:53;;;;;;;6.75;1.08;;;;;;;;;;5050284;28;20029;-77
2022/05/25 12:20:28;;;;;;;1.52;0.47;;;;;;;;;;5054057;28;20037;-78
2022/05/25 12:22:54;;;;;;;0.55;0.55;;;;;;;;;;5049747;28;20040;-77
2022/05/25 12:25:20;;;;;;;3.38;1.15;;;;;;;;;;5050375;28;20035;-77
2022/05/25 12:27:47;;;;;;;4.45;1.33;;;;;;;;;;5032155;28;20463;-77
2022/05/25 12:30:15;;;;;;;2.17;0.75;;;;;;;;;;5049532;28;20041;-76
2022/05/25 12:32:41;;;;;;;1.75;0.80;;;;;;;;;;5048536;28;21160;-75
2022/05/25 12:35:08;;;;;;;0.60;0.50;;;;;;;;;;5048660;28;20021;-77
2022/05/25 12:37:35;;;;;;;3.35;0.90;;;;;;;;;;5049445;28;20391;-73
2022/05/25 12:40:01;;;;;;;1.88;0.65;;;;;;;;;;5049234;28;20057;-75
2022/05/25 12:42:26;;;;;;;1.35;0.98;;;;;;;;;;5048182;28;20072;-76
2022/05/25 12:50:50;;;;;;;0.23;0.23;;;;;;;;;;5014904;28;20072;-72
2022/05/25 12:53:20;;;;;;;1.30;0.40;;;;;;;;;;5049584;28;20040;-73
2022/05/25 12:55:59;;;;;;;1.00;0.75;;;;;;;;;;5049768;28;20029;-72
2022/05/25 12:58:32;;;;;;;0.32;0.25;;;;;;;;;;5049658;28;20025;-72
2022/05/25 13:01:03;;;;;;;1.38;1.27;;;;;;;;;;5050020;28;20487;-72
2022/05/25 13:03:40;;;;;;;0.20;0.20;;;;;;;;;;5050112;28;20504;-72
2022/05/25 13:06:06;;;;;;;1.42;1.33;;;;;;;;;;5031951;28;20473;-71
2022/05/25 13:09:00;;;;;;;0.20;0.20;;;;;;;;;;5031740;28;20758;-72
2022/05/25 13:11:31;;;;;;;4.40;1.42;;;;;;;;;;5044239;28;20553;-70
2022/05/25 13:14:06;;;;;;;0.60;0.35;;;;;;;;;;5049567;28;20037;-71
2022/05/25 13:16:41;;;;;;;7.40;1.15;;;;;;;;;;5049774;28;20036;-70
2022/05/25 13:19:17;;;;;;;8.15;1.23;;;;;;;;;;5049858;28;20480;-72
2022/05/25 13:21:44;;;;;;;3.10;1.73;;;;;;;;;;5032032;28;20388;-70
2022/05/25 13:24:21;;;;;;;0.47;0.47;;;;;;;;;;5049600;28;20029;-72
2022/05/25 13:27:07;;;;;;;4.32;1.20;;;;;;;;;;5049748;28;20036;-70
2022/05/25 13:29:51;;;;;;;1.52;0.88;;;;;;;;;;5049485;28;20040;-71
2022/05/25 13:32:37;;;;;;;1.40;1.30;;;;;;;;;;5049378;28;20037;-73
2022/05/25 13:35:28;;;;;;;1.60;1.20;;;;;;;;;;5049011;28;20045;-70
2022/05/25 13:37:59;;;;;;;0.55;0.50;;;;;;;;;;5049472;28;20503;-71
2022/05/25 13:40:26;;;;;;;1.08;0.47;;;;;;;;;;5031615;28;20518;-72
2022/05/25 13:42:53;;;;;;;0.82;0.57;;;;;;;;;;5049578;28;20477;-70
2022/05/25 13:45:23;;;;;;;0.82;0.82;;;;;;;;;;5048284;28;20135;-71
2022/05/25 13:47:52;;;;;;;2.15;0.50;;;;;;;;;;5031914;28;20041;-71
2022/05/25 13:50:32;;;;;;;1.52;0.88;;;;;;;;;;5049099;28;20033;-71
2022/05/25 13:52:59;;;;;;;2.35;1.35;;;;;;;;;;5031754;28;20041;-70
2022/05/25 13:55:30;;;;;;;5.25;1.30;;;;;;;;;;5049641;28;20123;-70
2022/05/25 13:57:59;;;;;;;2.00;1.25;;;;;;;;;;5049464;28;20025;-70
2022/05/25 14:00:28;;;;;;;0.30;0.30;;;;;;;;;;5049052;28;20033;-70
2022/05/25 14:02:56;;;;;;;1.10;0.95;;;;;;;;;;5048964;28;20041;-71
2022/05/25 14:05:25;;;;;;;4.55;1.35;;;;;;;;;;5048925;28;20712;-69
2022/05/25 14:07:51;;;;;;;0.90;0.63;;;;;;;;;;5048472;28;20132;-71
2022/05/25 14:13:31;;;;;;;5.07;1.63;;;;;;;;;;5046676;28;20037;-72
2022/05/25 14:15:57;;;;;;;2.17;0.93;;;;;;;;;;5043076;28;20044;-71
2022/05/25 14:18:23;;;;;;;1.45;1.05;;;;;;;;;;5049409;28;20098;-72
2022/05/25 14:20:48;;;;;;;4.82;1.58;;;;;;;;;;5048910;28;20384;-70
2022/05/25 14:23:16;;;;;;;2.50;1.10;;;;;;;;;;5031346;28;20037;-70
2022/05/25 14:25:43;;;;;;;0.25;0.25;;;;;;;;;;5049061;28;20021;-71
2022/05/25 14:28:10;;;;;;;0.90;0.70;;;;;;;;;;5048265;28;20037;-71
2022/05/25 14:30:36;;;;;;;8.18;1.48;;;;;;;;;;5048313;28;20035;-70
2022/05/25 14:33:09;;;;;;;0.30;0.30;;;;;;;;;;5049062;28;20036;-71
2022/05/25 14:35:36;;;;;;;3.72;1.15;;;;;;;;;;5030725;28;20021;-71
2022/05/25 14:38:04;;;;;;;1.08;0.55;;;;;;;;;;5048476;28;20388;-71
2022/05/25 14:40:31;;;;;;;0.75;0.60;;;;;;;;;;5048507;28;20111;-72
2022/05/25 14:42:58;;;;;;;1.13;0.95;;;;;;;;;;5047238;28;20473;-71
2022/05/25 14:45:24;;;;;;;1.33;0.47;;;;;;;;;;5048811;28;20036;-71
2022/05/25 14:47:51;;;;;;;0.20;0.20;;;;;;;;;;5048439;28;20067;-71
2022/05/25 14:50:22;;;;;;;3.60;1.15;;;;;;;;;;5048364;28;20037;-72
2022/05/25 14:52:48;;;;;;;6.00;1.98;;;;;;;;;;5030760;28;20045;-70
2022/05/25 14:55:13;;;;;;;0.40;0.40;;;;;;;;;;5048390;28;20488;-71
2022/05/25 14:57:39;;;;;;;2.53;1.05;;;;;;;;;;5030793;28;20455;-70
2022/05/25 15:00:05;;;;;;;1.40;0.95;;;;;;;;;;5048317;28;20029;-70
2022/05/25 15:02:35;;;;;;;1.83;1.15;;;;;;;;;;5048300;28;20119;-71
2022/05/25 15:05:19;;;;;;;6.13;0.90;;;;;;;;;;5048252;28;20029;-71
2022/05/25 15:07:50;;;;;;;4.53;0.70;;;;;;;;;;5048547;28;20048;-71
2022/05/25 15:10:16;;;;;;;4.95;1.13;;;;;;;;;;5047900;28;20136;-72
2022/05/25 15:12:45;;;;;;;4.20;2.05;;;;;;;;;;5047842;28;20480;-71
2022/05/25 15:20:55;;;;;;;5.88;1.13;;;;;;;;;;5051632;28;20048;-70
2022/05/25 15:23:26;;;;;;;1.40;0.55;;;;;;;;;;5051786;28;20100;-71
2022/05/25 15:25:53;;;;;;;1.92;1.00;;;;;;;;;;5051646;28;20477;-72
2022/05/25 15:28:18;;;;;;;0.68;0.63;;;;;;;;;;5046850;28;20555;-71
2022/05/25 15:30:45;;;;;;;0.77;0.60;;;;;;;;;;5047726;28;20128;-71
2022/05/25 15:33:16;;;;;;;0.30;0.30;;;;;;;;;;5064420;28;20033;-71